Time;durP1;ratioP1;P1;durP2;ratioP2;P2;SDS_P1;SDS_P2;PMS_P1;PMS_P2;Temp;Humidity;BMP_temperature;BMP_pressure;BME280_temperature;BME280_humidity;BME280_pressure;Samples;Min_cycle;Max_cycle;Signal;HPM_P1;HPM_P2
2022/05/13 00:01:31;;;;;;;10.63;4.25;;;;;;;;;;5088326;28;20055;-67
2022/05/13 00:03:58;;;;;;;9.95;4.63;;;;;;;;;;5084622;28;20032;-67
2022/05/13 00:06:24;;;;;;;14.68;4.85;;;;;;;;;;5066961;28;20044;-67
2022/05/13 00:08:50;;;;;;;8.95;4.72;;;;;;;;;;5083925;28;20059;-67
2022/05/13 00:11:16;;;;;;;10.73;4.18;;;;;;;;;;5094929;28;20562;-67
2022/05/13 00:13:42;;;;;;;9.07;4.03;;;;;;;;;;5083733;28;20405;-67
2022/05/13 00:16:08;;;;;;;9.57;5.57;;;;;;;;;;5067166;27;20055;-67
2022/05/13 00:18:35;;;;;;;15.65;5.32;;;;;;;;;;5086075;28;20727;-66
2022/05/13 00:21:01;;;;;;;10.63;4.88;;;;;;;;;;5087849;28;20349;-66
2022/05/13 00:23:27;;;;;;;10.25;4.75;;;;;;;;;;5083874;28;20044;-67
2022/05/13 00:25:54;;;;;;;13.07;4.82;;;;;;;;;;5086693;28;20055;-67
2022/05/13 00:28:20;;;;;;;16.50;5.88;;;;;;;;;;5085992;28;20075;-67
2022/05/13 00:30:48;;;;;;;10.80;4.75;;;;;;;;;;5083282;27;20102;-67
2022/05/13 00:33:14;;;;;;;10.95;4.47;;;;;;;;;;5091663;28;20071;-67
2022/05/13 00:35:41;;;;;;;17.13;5.20;;;;;;;;;;5086310;28;20063;-67
2022/05/13 00:38:07;;;;;;;9.90;4.90;;;;;;;;;;5085893;27;20047;-67
2022/05/13 00:40:33;;;;;;;12.57;4.90;;;;;;;;;;5084612;28;20426;-66
2022/05/13 00:43:00;;;;;;;11.63;5.97;;;;;;;;;;5086281;28;20059;-66
2022/05/13 00:45:27;;;;;;;21.40;5.38;;;;;;;;;;5084657;28;20374;-67
2022/05/13 00:47:53;;;;;;;11.77;5.15;;;;;;;;;;5083317;28;20097;-67
2022/05/13 00:50:20;;;;;;;19.00;5.45;;;;;;;;;;5084526;28;20036;-66
2022/05/13 00:52:49;;;;;;;13.45;5.35;;;;;;;;;;5091133;28;20520;-67
2022/05/13 00:55:18;;;;;;;15.52;5.10;;;;;;;;;;5088731;28;20060;-67
2022/05/13 00:57:45;;;;;;;13.10;5.35;;;;;;;;;;5084114;28;20109;-67
2022/05/13 01:00:14;;;;;;;12.80;5.55;;;;;;;;;;5084185;28;20040;-67
2022/05/13 01:02:43;;;;;;;14.52;5.57;;;;;;;;;;5093327;28;20389;-67
2022/05/13 01:05:10;;;;;;;11.68;5.85;;;;;;;;;;5087420;28;20047;-67
2022/05/13 01:07:36;;;;;;;12.35;5.53;;;;;;;;;;5084510;28;20059;-67
2022/05/13 01:10:05;;;;;;;14.38;5.60;;;;;;;;;;5084269;28;20048;-67
2022/05/13 01:12:36;;;;;;;17.00;7.15;;;;;;;;;;5091637;28;20042;-67
2022/05/13 01:15:06;;;;;;;13.52;5.72;;;;;;;;;;5098149;28;20067;-67
2022/05/13 01:20:21;;;;;;;16.58;5.85;;;;;;;;;;5085274;28;20123;-67
2022/05/13 01:22:49;;;;;;;14.35;5.72;;;;;;;;;;5096764;27;20596;-67
2022/05/13 01:25:17;;;;;;;11.85;6.45;;;;;;;;;;5087634;27;20044;-67
2022/05/13 01:27:44;;;;;;;21.20;6.55;;;;;;;;;;5101683;27;20039;-67
2022/05/13 01:30:13;;;;;;;14.15;6.20;;;;;;;;;;5090241;28;20047;-67
2022/05/13 01:32:39;;;;;;;12.10;5.97;;;;;;;;;;5092324;27;20086;-67
2022/05/13 01:35:05;;;;;;;19.40;6.45;;;;;;;;;;5086691;27;20564;-67
2022/05/13 01:37:32;;;;;;;16.45;6.25;;;;;;;;;;5087528;27;20081;-67
2022/05/13 01:40:01;;;;;;;16.42;6.65;;;;;;;;;;5088049;27;20082;-67
2022/05/13 01:42:27;;;;;;;14.70;5.97;;;;;;;;;;5091711;28;20367;-67
2022/05/13 01:44:54;;;;;;;17.80;7.32;;;;;;;;;;5087768;27;20155;-66
2022/05/13 01:47:20;;;;;;;14.48;7.00;;;;;;;;;;5086083;27;20525;-67
2022/05/13 01:49:46;;;;;;;21.27;7.55;;;;;;;;;;5088110;28;20066;-67
2022/05/13 01:52:12;;;;;;;17.30;6.03;;;;;;;;;;5086882;28;20101;-67
2022/05/13 01:54:38;;;;;;;10.90;6.65;;;;;;;;;;5088415;27;20046;-67
2022/05/13 01:57:04;;;;;;;17.50;5.88;;;;;;;;;;5086968;28;20082;-67
2022/05/13 01:59:31;;;;;;;18.38;7.43;;;;;;;;;;5099136;28;20047;-67
2022/05/13 02:01:57;;;;;;;15.15;6.97;;;;;;;;;;5088180;27;20047;-67
2022/05/13 02:04:23;;;;;;;15.30;7.13;;;;;;;;;;5089574;27;20202;-67
2022/05/13 02:06:49;;;;;;;16.08;6.88;;;;;;;;;;5087582;27;20089;-67
2022/05/13 02:09:15;;;;;;;13.55;7.07;;;;;;;;;;5086367;27;20548;-68
2022/05/13 02:11:41;;;;;;;16.63;7.47;;;;;;;;;;5085925;28;20517;-67
2022/05/13 02:14:08;;;;;;;15.73;7.05;;;;;;;;;;5089797;27;20090;-67
2022/05/13 02:16:34;;;;;;;18.42;7.00;;;;;;;;;;5087603;27;20040;-68
2022/05/13 02:19:01;;;;;;;16.73;7.47;;;;;;;;;;5068314;28;20051;-67
2022/05/13 02:21:27;;;;;;;18.58;7.43;;;;;;;;;;5088242;27;20047;-68
2022/05/13 02:23:53;;;;;;;20.52;7.38;;;;;;;;;;5089774;27;20035;-67
2022/05/13 02:26:19;;;;;;;17.02;6.63;;;;;;;;;;5089892;28;20066;-67
2022/05/13 02:28:46;;;;;;;24.35;6.30;;;;;;;;;;5099091;28;20177;-67
2022/05/13 02:31:12;;;;;;;18.55;6.55;;;;;;;;;;5093507;27;20055;-68
2022/05/13 02:33:39;;;;;;;14.05;6.00;;;;;;;;;;5090550;27;20039;-68
2022/05/13 02:36:06;;;;;;;17.50;5.93;;;;;;;;;;5085399;27;20044;-67
2022/05/13 02:38:33;;;;;;;18.95;7.13;;;;;;;;;;5086878;27;20044;-67
2022/05/13 02:41:11;;;;;;;15.95;5.47;;;;;;;;;;5086137;28;20047;-67
2022/05/13 02:43:38;;;;;;;23.48;7.22;;;;;;;;;;5087976;27;20040;-67
2022/05/13 02:46:04;;;;;;;16.70;6.43;;;;;;;;;;5087888;28;20163;-67
2022/05/13 02:48:31;;;;;;;15.23;6.40;;;;;;;;;;5098028;28;20095;-67
2022/05/13 02:50:57;;;;;;;18.05;7.25;;;;;;;;;;5084341;27;20040;-68
2022/05/13 02:53:23;;;;;;;16.10;5.85;;;;;;;;;;5084926;28;20078;-67
2022/05/13 02:55:49;;;;;;;17.70;6.53;;;;;;;;;;5087593;28;20035;-67
2022/05/13 02:58:16;;;;;;;11.75;6.25;;;;;;;;;;5086331;27;20478;-67
2022/05/13 03:00:42;;;;;;;22.02;6.68;;;;;;;;;;5086446;28;20051;-67
2022/05/13 03:03:09;;;;;;;10.07;5.65;;;;;;;;;;5085444;28;20055;-67
2022/05/13 03:05:35;;;;;;;21.65;8.45;;;;;;;;;;5085556;28;20040;-67
2022/05/13 03:08:02;;;;;;;17.80;5.45;;;;;;;;;;5094856;28;20513;-67
2022/05/13 03:10:29;;;;;;;21.67;6.10;;;;;;;;;;5094176;27;20201;-67
2022/05/13 03:12:56;;;;;;;17.45;7.70;;;;;;;;;;5088899;28;20051;-67
2022/05/13 03:15:22;;;;;;;20.52;6.65;;;;;;;;;;5091177;27;20121;-67
2022/05/13 03:17:49;;;;;;;22.70;7.13;;;;;;;;;;5093395;27;20512;-68
2022/05/13 03:20:17;;;;;;;21.38;6.93;;;;;;;;;;5088036;28;20419;-67
2022/05/13 03:22:46;;;;;;;13.35;6.50;;;;;;;;;;5090287;28;20089;-67
2022/05/13 03:25:13;;;;;;;15.65;6.40;;;;;;;;;;5086670;27;20533;-68
2022/05/13 03:27:39;;;;;;;12.05;5.57;;;;;;;;;;5085446;27;20504;-67
2022/05/13 03:30:07;;;;;;;14.82;5.88;;;;;;;;;;5083774;28;20120;-67
2022/05/13 03:32:33;;;;;;;12.07;6.05;;;;;;;;;;5090168;28;20040;-67
2022/05/13 03:34:59;;;;;;;13.10;5.93;;;;;;;;;;5085291;27;20129;-69
2022/05/13 03:37:25;;;;;;;21.33;6.88;;;;;;;;;;5084478;27;20147;-67
2022/05/13 03:39:51;;;;;;;20.50;5.65;;;;;;;;;;5087735;27;20038;-67
2022/05/13 03:42:20;;;;;;;20.58;7.35;;;;;;;;;;5085938;27;20047;-67
2022/05/13 03:44:46;;;;;;;18.90;6.13;;;;;;;;;;5097854;27;20589;-67
2022/05/13 03:47:13;;;;;;;13.95;5.30;;;;;;;;;;5085138;28;20159;-68
2022/05/13 03:49:39;;;;;;;14.85;5.78;;;;;;;;;;5085199;27;20119;-67
2022/05/13 03:52:05;;;;;;;10.25;5.03;;;;;;;;;;5084496;28;20048;-67
2022/05/13 03:54:31;;;;;;;17.00;5.03;;;;;;;;;;5086968;28;20035;-67
2022/05/13 03:56:58;;;;;;;14.65;5.85;;;;;;;;;;5074685;28;20070;-67
2022/05/13 03:59:24;;;;;;;14.23;5.53;;;;;;;;;;5085813;28;20228;-67
2022/05/13 04:01:50;;;;;;;19.35;5.05;;;;;;;;;;5087885;28;20040;-67
2022/05/13 04:04:20;;;;;;;11.13;4.25;;;;;;;;;;5084830;28;20043;-67
2022/05/13 04:09:32;;;;;;;10.52;4.15;;;;;;;;;;5087906;27;20036;-68
2022/05/13 04:17:31;;;;;;;11.32;4.10;;;;;;;;;;5083405;28;20119;-67
2022/05/13 04:20:00;;;;;;;14.05;5.70;;;;;;;;;;5072502;27;20059;-67
2022/05/13 04:22:26;;;;;;;11.07;4.60;;;;;;;;;;5088223;28;20044;-67
2022/05/13 04:24:53;;;;;;;8.70;3.65;;;;;;;;;;5087664;28;20056;-67
2022/05/13 04:27:19;;;;;;;10.85;3.50;;;;;;;;;;5086032;28;20504;-67
2022/05/13 04:29:46;;;;;;;16.58;3.83;;;;;;;;;;5092556;28;20154;-67
2022/05/13 04:32:12;;;;;;;6.43;3.13;;;;;;;;;;5081332;28;20503;-68
2022/05/13 04:34:38;;;;;;;5.75;3.58;;;;;;;;;;5095980;27;20293;-68
2022/05/13 04:37:04;;;;;;;5.80;2.67;;;;;;;;;;5085338;27;20578;-68
2022/05/13 04:39:30;;;;;;;9.13;3.25;;;;;;;;;;5082673;28;20259;-67
2022/05/13 04:44:41;;;;;;;4.82;2.58;;;;;;;;;;5096025;28;20540;-68
2022/05/13 04:48:15;;;;;;;9.48;3.28;;;;;;;;;;5088886;28;20051;-67
2022/05/13 04:49:53;;;;;;;8.80;3.47;;;;;;;;;;5092866;27;20122;-67
2022/05/13 04:52:20;;;;;;;7.97;2.45;;;;;;;;;;5092627;28;20040;-67
2022/05/13 04:54:46;;;;;;;7.85;4.18;;;;;;;;;;5088740;28;20401;-67
2022/05/13 04:57:12;;;;;;;11.38;4.00;;;;;;;;;;5093889;28;20056;-68
2022/05/13 04:59:39;;;;;;;10.48;3.38;;;;;;;;;;5093244;28;20039;-67
2022/05/13 05:02:05;;;;;;;7.85;2.80;;;;;;;;;;5080057;28;20047;-68
2022/05/13 05:04:31;;;;;;;12.43;2.97;;;;;;;;;;5091089;28;20055;-67
2022/05/13 05:06:57;;;;;;;6.95;2.42;;;;;;;;;;5085734;28;20040;-67
2022/05/13 05:09:24;;;;;;;8.50;2.97;;;;;;;;;;5082126;28;20035;-67
2022/05/13 05:11:50;;;;;;;8.35;2.80;;;;;;;;;;5081387;28;20048;-67
2022/05/13 05:14:16;;;;;;;6.90;3.10;;;;;;;;;;5081606;28;20040;-67
2022/05/13 05:16:42;;;;;;;6.75;2.90;;;;;;;;;;5096562;28;20466;-67
2022/05/13 05:19:08;;;;;;;6.10;3.33;;;;;;;;;;5088731;28;20132;-68
2022/05/13 05:21:34;;;;;;;7.07;2.22;;;;;;;;;;5092275;28;20515;-67
2022/05/13 05:24:00;;;;;;;6.05;2.60;;;;;;;;;;5091237;28;20348;-67
2022/05/13 05:26:27;;;;;;;7.53;3.10;;;;;;;;;;5081198;28;20106;-67
2022/05/13 05:28:54;;;;;;;4.50;2.55;;;;;;;;;;5095565;28;20083;-67
2022/05/13 05:31:20;;;;;;;11.77;3.30;;;;;;;;;;5087503;28;20052;-68
2022/05/13 05:33:46;;;;;;;5.53;3.00;;;;;;;;;;5093730;28;20044;-67
2022/05/13 05:36:12;;;;;;;5.68;2.88;;;;;;;;;;5090919;28;20039;-67
2022/05/13 05:38:39;;;;;;;7.95;2.67;;;;;;;;;;5086758;28;20399;-68
2022/05/13 05:41:05;;;;;;;8.18;3.03;;;;;;;;;;5084586;28;20429;-67
2022/05/13 05:43:31;;;;;;;9.65;3.30;;;;;;;;;;5084233;28;20097;-67
2022/05/13 05:45:58;;;;;;;6.90;2.70;;;;;;;;;;5086730;28;20036;-68
2022/05/13 05:48:25;;;;;;;5.18;2.78;;;;;;;;;;5088748;28;20527;-67
2022/05/13 05:50:52;;;;;;;7.47;2.88;;;;;;;;;;5081939;28;20043;-67
2022/05/13 05:58:48;;;;;;;7.82;2.75;;;;;;;;;;5088686;28;20112;-67
2022/05/13 06:01:14;;;;;;;5.50;2.92;;;;;;;;;;5075212;28;20040;-67
2022/05/13 06:03:40;;;;;;;6.57;2.30;;;;;;;;;;5091024;28;20078;-67
2022/05/13 06:06:09;;;;;;;9.60;2.95;;;;;;;;;;5081844;28;20460;-67
2022/05/13 06:08:36;;;;;;;8.93;2.92;;;;;;;;;;5068899;28;20040;-67
2022/05/13 06:11:02;;;;;;;12.27;3.47;;;;;;;;;;5090726;28;20039;-67
2022/05/13 06:13:28;;;;;;;9.57;3.72;;;;;;;;;;5087735;27;20093;-68
2022/05/13 06:15:54;;;;;;;5.80;2.67;;;;;;;;;;5097141;27;20046;-67
2022/05/13 06:18:20;;;;;;;7.90;2.75;;;;;;;;;;5086358;28;20044;-67
2022/05/13 06:20:46;;;;;;;8.10;2.22;;;;;;;;;;5086304;27;20044;-68
2022/05/13 06:23:13;;;;;;;3.88;2.22;;;;;;;;;;5090461;28;20044;-67
2022/05/13 06:25:39;;;;;;;7.05;3.20;;;;;;;;;;5086066;28;20048;-67
2022/05/13 06:28:06;;;;;;;6.30;2.65;;;;;;;;;;5090472;28;20093;-67
2022/05/13 06:30:33;;;;;;;8.73;3.92;;;;;;;;;;5086093;27;20094;-67
2022/05/13 06:32:59;;;;;;;8.65;3.60;;;;;;;;;;5089994;28;20105;-68
2022/05/13 06:35:26;;;;;;;8.48;2.67;;;;;;;;;;5090541;28;20051;-67
2022/05/13 06:37:52;;;;;;;8.73;3.17;;;;;;;;;;5087634;27;20039;-68
2022/05/13 06:40:19;;;;;;;11.38;3.05;;;;;;;;;;5085882;27;20052;-68
2022/05/13 06:42:46;;;;;;;7.65;2.25;;;;;;;;;;5084485;27;20561;-67
2022/05/13 06:45:12;;;;;;;6.40;3.38;;;;;;;;;;5092227;28;20067;-67
2022/05/13 06:47:38;;;;;;;5.85;2.20;;;;;;;;;;5089918;27;20644;-67
2022/05/13 06:50:07;;;;;;;9.27;3.08;;;;;;;;;;5101185;27;20047;-67
2022/05/13 06:52:33;;;;;;;8.40;2.70;;;;;;;;;;5086300;28;20075;-67
2022/05/13 06:54:59;;;;;;;5.22;2.30;;;;;;;;;;5091701;27;20039;-68
2022/05/13 06:57:25;;;;;;;6.18;2.53;;;;;;;;;;5092610;27;20110;-68
2022/05/13 06:59:52;;;;;;;8.05;2.60;;;;;;;;;;5092313;27;20059;-67
2022/05/13 07:02:19;;;;;;;6.90;2.35;;;;;;;;;;5086587;27;20494;-67
2022/05/13 07:04:46;;;;;;;9.18;2.40;;;;;;;;;;5091245;27;20471;-67
2022/05/13 07:07:12;;;;;;;4.30;2.13;;;;;;;;;;5087340;27;20467;-68
2022/05/13 07:09:38;;;;;;;5.25;2.58;;;;;;;;;;5086780;27;20186;-67
2022/05/13 07:12:05;;;;;;;9.07;3.30;;;;;;;;;;5095213;27;20105;-67
2022/05/13 07:14:31;;;;;;;7.70;2.70;;;;;;;;;;5090017;27;20040;-67
2022/05/13 07:16:57;;;;;;;10.95;2.50;;;;;;;;;;5088883;28;20128;-67
2022/05/13 07:19:23;;;;;;;7.97;2.42;;;;;;;;;;5086106;27;20041;-67
2022/05/13 07:21:50;;;;;;;7.72;2.75;;;;;;;;;;5064669;28;20043;-68
2022/05/13 07:24:18;;;;;;;7.07;2.97;;;;;;;;;;5086189;27;20036;-68
2022/05/13 07:26:44;;;;;;;5.28;2.35;;;;;;;;;;5086619;27;20040;-67
2022/05/13 07:29:10;;;;;;;7.78;3.15;;;;;;;;;;5084945;27;20074;-68
2022/05/13 07:31:36;;;;;;;11.50;2.70;;;;;;;;;;5083736;28;20074;-67
2022/05/13 07:34:03;;;;;;;5.18;2.53;;;;;;;;;;5084486;27;20058;-67
2022/05/13 07:36:29;;;;;;;12.60;3.13;;;;;;;;;;5084174;28;21056;-67
2022/05/13 07:41:41;;;;;;;7.32;2.70;;;;;;;;;;5085134;27;20036;-68
2022/05/13 07:44:08;;;;;;;5.03;2.22;;;;;;;;;;5073311;28;20044;-67
2022/05/13 07:46:34;;;;;;;9.02;2.63;;;;;;;;;;5084134;27;20032;-67
2022/05/13 07:49:00;;;;;;;8.70;2.30;;;;;;;;;;5084560;27;20066;-67
2022/05/13 07:51:27;;;;;;;8.15;3.10;;;;;;;;;;5088651;27;20039;-67
2022/05/13 07:53:53;;;;;;;8.77;2.53;;;;;;;;;;5064045;28;20089;-68
2022/05/13 07:56:20;;;;;;;5.70;2.20;;;;;;;;;;5085527;27;20036;-67
2022/05/13 07:58:47;;;;;;;9.40;2.58;;;;;;;;;;5068688;28;20506;-67
2022/05/13 08:01:14;;;;;;;8.07;3.20;;;;;;;;;;5086605;27;20104;-67
2022/05/13 08:03:41;;;;;;;8.27;2.05;;;;;;;;;;5084061;27;20047;-67
2022/05/13 08:06:08;;;;;;;9.35;2.72;;;;;;;;;;5082891;28;20036;-67
2022/05/13 08:08:36;;;;;;;6.43;2.90;;;;;;;;;;5086054;28;20686;-67
2022/05/13 08:11:03;;;;;;;8.40;2.90;;;;;;;;;;5090759;28;20124;-67
2022/05/13 08:13:31;;;;;;;9.20;2.40;;;;;;;;;;5091043;27;20043;-67
2022/05/13 08:15:58;;;;;;;9.27;2.78;;;;;;;;;;5083887;28;20051;-67
2022/05/13 08:18:24;;;;;;;6.95;2.60;;;;;;;;;;5083721;28;20039;-67
2022/05/13 08:20:50;;;;;;;7.30;2.35;;;;;;;;;;5082716;27;20052;-68
2022/05/13 08:23:17;;;;;;;6.32;3.38;;;;;;;;;;5091676;28;20061;-67
2022/05/13 08:25:46;;;;;;;9.52;2.25;;;;;;;;;;5085989;28;20039;-67
2022/05/13 08:28:13;;;;;;;6.22;2.97;;;;;;;;;;5097649;28;20078;-68
2022/05/13 08:30:40;;;;;;;6.15;2.40;;;;;;;;;;5081564;28;20111;-68
2022/05/13 08:33:08;;;;;;;7.35;2.83;;;;;;;;;;5089283;28;20491;-68
2022/05/13 08:35:39;;;;;;;10.55;2.97;;;;;;;;;;5080454;28;20031;-68
2022/05/13 08:38:06;;;;;;;6.90;2.33;;;;;;;;;;5081300;28;20556;-67
2022/05/13 08:40:32;;;;;;;10.02;2.20;;;;;;;;;;5081316;28;20123;-67
2022/05/13 08:43:00;;;;;;;11.75;2.53;;;;;;;;;;5080934;28;20044;-68
2022/05/13 08:45:26;;;;;;;7.15;2.88;;;;;;;;;;5079527;28;20477;-68
2022/05/13 08:47:57;;;;;;;7.45;1.70;;;;;;;;;;5080926;28;20458;-68
2022/05/13 08:50:30;;;;;;;6.18;2.38;;;;;;;;;;5080944;28;20043;-68
2022/05/13 08:53:08;;;;;;;3.88;2.60;;;;;;;;;;5082293;28;20161;-68
2022/05/13 08:55:37;;;;;;;5.97;2.15;;;;;;;;;;5084649;28;20035;-68
2022/05/13 08:58:06;;;;;;;8.75;2.28;;;;;;;;;;5079758;28;20557;-68
2022/05/13 09:00:39;;;;;;;10.43;1.98;;;;;;;;;;5082773;28;20051;-68
2022/05/13 09:03:12;;;;;;;8.82;3.28;;;;;;;;;;5077052;28;20040;-67
2022/05/13 09:05:44;;;;;;;9.45;2.85;;;;;;;;;;5079559;28;20038;-68
2022/05/13 09:08:11;;;;;;;5.80;2.25;;;;;;;;;;5079565;28;20051;-68
2022/05/13 09:10:50;;;;;;;5.72;2.58;;;;;;;;;;5080532;28;20040;-68
2022/05/13 09:13:16;;;;;;;6.38;2.50;;;;;;;;;;5091223;28;20612;-68
2022/05/13 09:15:49;;;;;;;8.75;2.92;;;;;;;;;;5079705;28;20093;-67
2022/05/13 09:18:22;;;;;;;6.15;2.50;;;;;;;;;;5081649;28;20043;-68
2022/05/13 09:20:50;;;;;;;7.00;2.45;;;;;;;;;;5079465;28;20295;-67
2022/05/13 09:23:17;;;;;;;6.68;2.72;;;;;;;;;;5081622;28;20040;-68
2022/05/13 09:25:54;;;;;;;7.13;2.97;;;;;;;;;;5081589;28;20156;-68
2022/05/13 09:28:21;;;;;;;14.13;3.35;;;;;;;;;;5082685;28;20151;-68
2022/05/13 09:30:50;;;;;;;6.72;2.50;;;;;;;;;;5084222;28;20048;-68
2022/05/13 09:33:19;;;;;;;13.68;3.38;;;;;;;;;;5079547;28;20501;-68
2022/05/13 09:35:46;;;;;;;7.05;2.72;;;;;;;;;;5079017;28;20253;-68
2022/05/13 09:38:14;;;;;;;6.35;2.80;;;;;;;;;;5079267;28;20553;-68
2022/05/13 09:40:41;;;;;;;8.60;2.92;;;;;;;;;;5079140;28;20397;-68
2022/05/13 09:43:07;;;;;;;10.82;2.70;;;;;;;;;;5089717;28;20073;-68
2022/05/13 09:45:34;;;;;;;7.35;2.60;;;;;;;;;;5092213;27;20044;-68
2022/05/13 09:48:05;;;;;;;8.15;3.38;;;;;;;;;;5089769;27;20048;-68
2022/05/13 09:50:32;;;;;;;13.30;3.22;;;;;;;;;;5083556;27;20633;-68
2022/05/13 09:53:03;;;;;;;6.32;2.70;;;;;;;;;;5083402;28;20050;-68
2022/05/13 09:55:40;;;;;;;7.65;2.85;;;;;;;;;;5080677;28;20127;-67
2022/05/13 09:58:11;;;;;;;8.82;3.13;;;;;;;;;;5083164;28;20078;-68
2022/05/13 10:00:39;;;;;;;9.52;2.80;;;;;;;;;;5080690;28;20089;-68
2022/05/13 10:03:19;;;;;;;5.50;3.00;;;;;;;;;;5085069;28;20451;-68
2022/05/13 10:05:46;;;;;;;6.50;3.65;;;;;;;;;;5083323;27;20036;-68
2022/05/13 10:08:17;;;;;;;5.93;2.67;;;;;;;;;;5084031;27;20048;-68
2022/05/13 10:13:58;;;;;;;7.43;2.65;;;;;;;;;;5082517;27;20105;-68
2022/05/13 10:16:44;;;;;;;4.72;2.42;;;;;;;;;;5081827;28;20117;-68
2022/05/13 10:19:11;;;;;;;5.15;2.33;;;;;;;;;;5085194;28;20363;-68
2022/05/13 10:21:37;;;;;;;4.40;2.25;;;;;;;;;;5093374;27;20074;-68
2022/05/13 10:24:03;;;;;;;8.82;3.70;;;;;;;;;;5084870;28;20404;-68
2022/05/13 10:26:32;;;;;;;8.48;2.67;;;;;;;;;;5085951;28;20044;-68
2022/05/13 10:29:14;;;;;;;6.90;2.58;;;;;;;;;;5081257;27;20547;-67
2022/05/13 10:31:43;;;;;;;6.28;2.55;;;;;;;;;;5084713;28;20040;-68
2022/05/13 10:34:25;;;;;;;6.40;2.30;;;;;;;;;;5082639;28;20569;-68
2022/05/13 10:36:54;;;;;;;11.95;3.20;;;;;;;;;;5081127;28;20592;-68
2022/05/13 10:39:27;;;;;;;9.07;2.75;;;;;;;;;;5083880;28;20392;-68
2022/05/13 10:41:58;;;;;;;7.57;2.63;;;;;;;;;;5081104;28;20052;-67
2022/05/13 10:44:24;;;;;;;8.65;2.90;;;;;;;;;;5083073;27;20071;-68
2022/05/13 10:46:53;;;;;;;6.88;2.30;;;;;;;;;;5087377;28;20445;-68
2022/05/13 10:49:20;;;;;;;8.63;2.75;;;;;;;;;;5092799;28;20056;-68
2022/05/13 10:51:49;;;;;;;7.70;2.92;;;;;;;;;;5082049;28;20079;-68
2022/05/13 10:54:22;;;;;;;7.35;2.95;;;;;;;;;;5084015;28;20432;-68
2022/05/13 10:56:53;;;;;;;5.40;2.65;;;;;;;;;;5092284;27;20131;-68
2022/05/13 10:59:39;;;;;;;8.10;2.90;;;;;;;;;;5097547;27;20122;-68
2022/05/13 11:02:11;;;;;;;8.80;3.03;;;;;;;;;;5087904;27;20070;-67
2022/05/13 11:04:45;;;;;;;7.68;2.90;;;;;;;;;;5094478;27;20039;-68
2022/05/13 11:07:18;;;;;;;11.57;2.92;;;;;;;;;;5086523;28;20082;-68
2022/05/13 11:09:59;;;;;;;7.00;2.83;;;;;;;;;;5087600;27;20085;-68
2022/05/13 11:12:38;;;;;;;14.75;3.53;;;;;;;;;;5093699;28;20043;-68
2022/05/13 11:15:05;;;;;;;8.77;2.90;;;;;;;;;;5087287;27;20044;-68
2022/05/13 11:17:37;;;;;;;6.47;3.83;;;;;;;;;;5086244;27;20044;-68
2022/05/13 11:20:03;;;;;;;;;;;;;;;;;;5098974;28;20039;-68
2022/05/13 11:22:35;;;;;;;7.05;3.05;;;;;;;;;;5097245;28;20426;-68
2022/05/13 11:28:08;;;;;;;9.50;3.80;;;;;;;;;;5084626;28;20047;-68
2022/05/13 11:30:42;;;;;;;12.85;4.18;;;;;;;;;;5097054;27;20036;-68
2022/05/13 11:33:21;;;;;;;12.07;3.50;;;;;;;;;;5095897;28;20027;-68
2022/05/13 11:35:54;;;;;;;8.98;2.97;;;;;;;;;;5094782;28;20656;-66
2022/05/13 11:38:22;;;;;;;9.32;2.40;;;;;;;;;;5091083;28;20051;-67
2022/05/13 11:41:08;;;;;;;5.97;3.17;;;;;;;;;;5095800;27;20047;-69
2022/05/13 11:43:34;;;;;;;7.20;3.42;;;;;;;;;;5094228;27;20461;-67
2022/05/13 11:46:07;;;;;;;10.98;2.88;;;;;;;;;;5098251;27;20036;-68
2022/05/13 11:48:33;;;;;;;10.35;3.83;;;;;;;;;;5086420;28;20052;-68
2022/05/13 11:51:07;;;;;;;7.57;3.33;;;;;;;;;;5084602;27;20051;-67
2022/05/13 11:53:42;;;;;;;6.38;3.20;;;;;;;;;;5099564;27;20071;-67
2022/05/13 11:56:18;;;;;;;6.90;2.92;;;;;;;;;;5093818;27;20119;-67
2022/05/13 11:58:47;;;;;;;9.02;3.55;;;;;;;;;;5085074;28;20047;-67
2022/05/13 12:01:14;;;;;;;11.48;3.65;;;;;;;;;;5087536;28;20416;-67
2022/05/13 12:03:40;;;;;;;9.63;2.85;;;;;;;;;;5088132;28;20097;-67
2022/05/13 12:06:08;;;;;;;8.50;2.63;;;;;;;;;;5089044;27;20057;-67
2022/05/13 12:08:37;;;;;;;9.70;3.63;;;;;;;;;;5086288;28;20040;-67
2022/05/13 12:11:03;;;;;;;6.50;2.97;;;;;;;;;;5095546;28;20413;-67
2022/05/13 12:13:34;;;;;;;9.38;2.95;;;;;;;;;;5085552;28;20040;-67
2022/05/13 12:16:00;;;;;;;8.27;2.78;;;;;;;;;;5085756;27;20113;-67
2022/05/13 12:18:33;;;;;;;10.52;3.28;;;;;;;;;;5086214;27;20127;-67
2022/05/13 12:21:14;;;;;;;8.93;2.60;;;;;;;;;;5084445;28;20047;-67
2022/05/13 12:23:48;;;;;;;12.35;3.17;;;;;;;;;;5087837;28;20399;-68
2022/05/13 12:26:14;;;;;;;8.07;2.35;;;;;;;;;;5085284;28;20070;-68
2022/05/13 12:29:10;;;;;;;8.80;3.08;;;;;;;;;;5084373;28;20032;-68
2022/05/13 12:31:47;;;;;;;5.57;2.75;;;;;;;;;;5050160;28;20526;-67
2022/05/13 12:37:39;;;;;;;7.72;2.90;;;;;;;;;;5084500;27;20059;-67
2022/05/13 12:40:08;;;;;;;6.82;2.83;;;;;;;;;;5084025;28;20300;-67
2022/05/13 12:42:37;;;;;;;7.32;2.75;;;;;;;;;;5088618;28;20123;-67
2022/05/13 12:45:04;;;;;;;6.63;2.40;;;;;;;;;;5092676;28;20115;-67
2022/05/13 12:47:31;;;;;;;9.50;2.80;;;;;;;;;;5091917;28;20036;-68
2022/05/13 12:49:58;;;;;;;7.60;3.42;;;;;;;;;;5091669;28;20473;-67
2022/05/13 12:52:27;;;;;;;11.13;3.10;;;;;;;;;;5088115;28;20035;-67
2022/05/13 12:54:58;;;;;;;8.95;2.90;;;;;;;;;;5095630;28;20040;-67
2022/05/13 12:57:28;;;;;;;7.97;3.08;;;;;;;;;;5086424;28;20046;-67
2022/05/13 12:59:55;;;;;;;6.97;2.90;;;;;;;;;;5082357;28;20040;-67
2022/05/13 13:02:25;;;;;;;7.00;3.05;;;;;;;;;;5089020;28;20437;-67
2022/05/13 13:04:57;;;;;;;6.22;2.28;;;;;;;;;;5084455;28;20486;-67
2022/05/13 13:07:25;;;;;;;5.53;2.33;;;;;;;;;;5083171;28;20757;-67
2022/05/13 13:09:51;;;;;;;4.55;2.70;;;;;;;;;;5085370;28;20035;-67
2022/05/13 13:12:21;;;;;;;7.45;3.42;;;;;;;;;;5086459;28;20067;-67
2022/05/13 13:15:10;;;;;;;8.57;3.05;;;;;;;;;;5091668;28;20055;-67
2022/05/13 13:17:43;;;;;;;5.93;2.92;;;;;;;;;;5082481;28;20036;-67
2022/05/13 13:20:12;;;;;;;7.88;2.65;;;;;;;;;;5089973;28;20031;-67
2022/05/13 13:22:40;;;;;;;6.03;2.47;;;;;;;;;;5097157;27;20048;-67
2022/05/13 13:25:10;;;;;;;10.52;3.10;;;;;;;;;;5095268;28;20035;-66
2022/05/13 13:27:36;;;;;;;9.05;3.15;;;;;;;;;;5092698;28;20046;-67
2022/05/13 13:30:03;;;;;;;5.78;2.85;;;;;;;;;;5090262;27;20103;-67
2022/05/13 13:32:29;;;;;;;9.73;3.75;;;;;;;;;;5093859;28;20040;-67
2022/05/13 13:35:00;;;;;;;10.70;4.15;;;;;;;;;;5097139;27;20036;-67
2022/05/13 13:37:28;;;;;;;6.07;3.47;;;;;;;;;;5081162;28;20047;-66
2022/05/13 13:39:55;;;;;;;8.73;2.92;;;;;;;;;;5099096;28;20039;-67
2022/05/13 13:42:21;;;;;;;8.15;3.10;;;;;;;;;;5090951;27;20040;-67
2022/05/13 13:45:04;;;;;;;11.70;3.28;;;;;;;;;;5080248;28;20044;-67
2022/05/13 13:47:30;;;;;;;;;;;;;;;;;;5085359;28;20050;-67
2022/05/13 13:49:57;;;;;;;9.35;3.72;;;;;;;;;;5088969;27;19970;-66
2022/05/13 13:52:26;;;;;;;8.30;2.70;;;;;;;;;;5085607;28;20084;-68
2022/05/13 13:54:58;;;;;;;12.77;3.00;;;;;;;;;;5070632;28;20071;-67
2022/05/13 13:57:24;;;;;;;11.85;3.67;;;;;;;;;;5085843;28;20036;-68
2022/05/13 13:59:54;;;;;;;7.32;3.38;;;;;;;;;;5085462;28;20039;-67
2022/05/13 14:02:34;;;;;;;7.45;3.13;;;;;;;;;;5088240;27;20051;-68
2022/05/13 14:05:00;;;;;;;9.43;4.30;;;;;;;;;;5084928;28;20393;-68
2022/05/13 14:07:27;;;;;;;11.80;3.45;;;;;;;;;;5087421;28;20096;-69
2022/05/13 14:09:54;;;;;;;9.93;3.42;;;;;;;;;;5088750;27;20048;-67
2022/05/13 14:12:22;;;;;;;10.07;3.40;;;;;;;;;;5090631;28;20584;-68
2022/05/13 14:14:53;;;;;;;11.80;3.90;;;;;;;;;;5086491;27;20044;-68
2022/05/13 14:17:20;;;;;;;10.50;3.35;;;;;;;;;;5085655;28;20040;-68
2022/05/13 14:19:50;;;;;;;7.75;3.30;;;;;;;;;;5084557;28;20051;-68
2022/05/13 14:22:16;;;;;;;9.85;2.90;;;;;;;;;;5085567;27;20032;-68
2022/05/13 14:24:47;;;;;;;7.85;3.25;;;;;;;;;;5085789;28;20128;-68
2022/05/13 14:27:13;;;;;;;6.70;2.85;;;;;;;;;;5088780;27;20127;-68
2022/05/13 14:29:40;;;;;;;9.80;3.38;;;;;;;;;;5085302;27;20039;-66
2022/05/13 14:32:11;;;;;;;11.90;3.75;;;;;;;;;;5070640;28;20040;-66
2022/05/13 14:34:37;;;;;;;9.10;3.58;;;;;;;;;;5086125;28;20081;-67
2022/05/13 14:37:05;;;;;;;7.90;3.28;;;;;;;;;;5084479;27;20117;-66
2022/05/13 14:39:50;;;;;;;11.52;3.72;;;;;;;;;;5085987;27;20031;-66
2022/05/13 14:42:23;;;;;;;8.00;3.83;;;;;;;;;;5101089;27;20388;-66
2022/05/13 14:44:51;;;;;;;7.95;3.03;;;;;;;;;;5084885;28;20051;-66
2022/05/13 14:47:23;;;;;;;9.02;2.92;;;;;;;;;;5083937;27;20040;-66
2022/05/13 14:49:50;;;;;;;;;;;;;;;;;;5083685;27;20575;-65
2022/05/13 14:52:19;;;;;;;8.18;3.10;;;;;;;;;;5068744;28;20006;-66
2022/05/13 14:54:46;;;;;;;5.65;2.90;;;;;;;;;;5090115;27;20430;-67
2022/05/13 14:57:12;;;;;;;8.02;2.83;;;;;;;;;;5084567;27;20040;-66
2022/05/13 14:59:38;;;;;;;10.32;3.55;;;;;;;;;;5084783;28;20055;-66
2022/05/13 15:02:08;;;;;;;10.45;3.15;;;;;;;;;;5084305;28;20063;-65
2022/05/13 15:04:38;;;;;;;16.13;3.78;;;;;;;;;;5084318;28;20074;-67
2022/05/13 15:07:15;;;;;;;9.27;4.00;;;;;;;;;;5086644;27;20439;-66
2022/05/13 15:09:41;;;;;;;7.00;2.65;;;;;;;;;;5087593;28;20044;-66
2022/05/13 15:12:08;;;;;;;7.70;3.30;;;;;;;;;;5084179;27;20150;-66
2022/05/13 15:14:35;;;;;;;9.18;2.47;;;;;;;;;;5085973;28;20074;-66
2022/05/13 15:17:02;;;;;;;10.00;3.88;;;;;;;;;;5094050;27;20074;-66